createdAt,value
2018-02-24T00:00:31.570Z,73.11
2018-02-24T00:01:37.819Z,73.31
2018-02-24T00:02:44.041Z,73.23
2018-02-24T00:03:50.191Z,73.43
2018-02-24T00:04:56.085Z,73.18
2018-02-24T00:06:02.275Z,72.93
2018-02-24T00:07:08.473Z,72.75
2018-02-24T00:08:14.777Z,72.65
2018-02-24T00:09:20.954Z,72.34
2018-02-24T00:10:27.201Z,72.31
2018-02-24T00:11:33.378Z,71.79
2018-02-24T00:12:39.538Z,71.98
2018-02-24T00:13:45.700Z,72.33
2018-02-24T00:14:52.769Z,72.30
2018-02-24T00:15:59.033Z,72.06
2018-02-24T00:17:05.025Z,71.90
2018-02-24T00:18:10.996Z,71.59
2018-02-24T00:19:17.207Z,72.01
2018-02-24T00:20:23.420Z,72.14
2018-02-24T00:21:29.577Z,72.21
2018-02-24T00:22:42.646Z,72.32
2018-02-24T00:23:48.894Z,71.97
2018-02-24T00:24:55.044Z,71.86
2018-02-24T00:26:01.292Z,72.20
2018-02-24T00:27:07.513Z,72.36
2018-02-24T00:28:13.391Z,72.81
2018-02-24T00:29:19.557Z,73.17
2018-02-24T00:30:25.696Z,72.94
2018-02-24T00:31:31.873Z,72.62
2018-02-24T00:32:38.137Z,72.63
2018-02-24T00:33:44.358Z,72.69
2018-02-24T00:34:50.601Z,73.36
2018-02-24T00:35:57.522Z,73.42
2018-02-24T00:37:04.108Z,73.12
2018-02-24T00:38:10.303Z,72.73
2018-02-24T00:39:16.512Z,73.31
2018-02-24T00:40:22.724Z,73.50
2018-02-24T00:41:28.673Z,73.69
2018-02-24T00:42:34.864Z,73.85
2018-02-24T00:43:40.899Z,73.58
2018-02-24T00:44:47.079Z,73.73
2018-02-24T00:45:53.309Z,74.05
2018-02-24T00:46:59.549Z,74.00
2018-02-24T00:48:05.553Z,73.38
2018-02-24T00:49:11.560Z,73.44
2018-02-24T00:50:17.737Z,72.97
2018-02-24T00:51:24.053Z,72.63
2018-02-24T00:52:30.222Z,72.24
2018-02-24T00:53:36.223Z,72.06
2018-02-24T00:54:42.206Z,72.06
2018-02-24T00:55:48.218Z,72.34
2018-02-24T00:56:54.891Z,72.61
2018-02-24T00:58:01.073Z,72.64
2018-02-24T00:59:07.257Z,72.62
2018-02-24T01:00:13.410Z,72.89
2018-02-24T01:01:19.493Z,73.06
2018-02-24T01:02:25.445Z,72.88
2018-02-24T01:03:36.532Z,72.86
2018-02-24T01:04:42.371Z,72.74
2018-02-24T01:05:48.858Z,72.50
2018-02-24T01:06:55.434Z,72.86
2018-02-24T01:08:01.460Z,72.87
2018-02-24T01:09:07.345Z,73.08
2018-02-24T01:10:13.254Z,73.32
2018-02-24T01:11:19.427Z,73.19
2018-02-24T01:12:25.644Z,72.96
2018-02-24T01:13:31.844Z,73.22
2018-02-24T01:14:37.740Z,73.23
2018-02-24T01:15:43.926Z,73.56
2018-02-24T01:16:50.130Z,73.35
2018-02-24T01:17:56.062Z,73.61
2018-02-24T01:19:01.597Z,73.38
2018-02-24T01:20:07.146Z,73.75
2018-02-24T01:21:13.027Z,73.81
2018-02-24T01:22:19.243Z,73.89
2018-02-24T01:23:25.215Z,73.97
2018-02-24T01:24:31.432Z,74.33
2018-02-24T01:25:40.691Z,74.34
2018-02-24T01:26:46.967Z,74.34
2018-02-24T01:27:53.160Z,73.84
2018-02-24T01:28:59.357Z,74.24
2018-02-24T01:30:05.333Z,74.45
2018-02-24T01:31:11.528Z,74.01
2018-02-24T01:32:17.813Z,73.68
2018-02-24T01:33:23.972Z,73.75
2018-02-24T01:34:30.774Z,73.78
2018-02-24T01:35:36.820Z,73.79
2018-02-24T01:36:42.923Z,73.80
2018-02-24T01:37:49.058Z,73.84
2018-02-24T01:39:04.628Z,73.86
2018-02-24T01:40:10.871Z,74.59
2018-02-24T01:41:17.095Z,75.11
2018-02-24T01:42:23.307Z,75.16
2018-02-24T01:43:29.580Z,75.00
2018-02-24T01:44:35.733Z,75.01
2018-02-24T01:45:41.945Z,75.43
2018-02-24T01:46:48.469Z,75.46
2018-02-24T01:47:54.349Z,75.45
2018-02-24T01:49:00.274Z,75.32
2018-02-24T01:50:06.433Z,75.23
2018-02-24T01:51:12.651Z,75.16
2018-02-24T01:52:18.596Z,75.14
2018-02-24T01:53:24.744Z,75.05
2018-02-24T01:54:30.969Z,75.13
2018-02-24T01:55:37.252Z,75.13
2018-02-24T01:56:45.477Z,75.35
2018-02-24T01:57:51.354Z,75.46
2018-02-24T01:58:57.549Z,75.57
2018-02-24T02:00:03.647Z,75.55
2018-02-24T02:01:09.537Z,75.78
2018-02-24T02:02:15.709Z,75.84
2018-02-24T02:03:21.845Z,75.73
2018-02-24T02:04:28.039Z,75.85
2018-02-24T02:05:35.161Z,75.88
2018-02-24T02:06:41.362Z,75.94
2018-02-24T02:07:47.258Z,75.91
2018-02-24T02:08:53.218Z,75.71
2018-02-24T02:09:59.450Z,75.34
2018-02-24T02:11:05.622Z,75.34
2018-02-24T02:12:11.833Z,75.27
2018-02-24T02:13:18.006Z,75.20
2018-02-24T02:14:26.872Z,75.44
2018-02-24T02:15:33.023Z,75.47
2018-02-24T02:16:38.913Z,75.59
2018-02-24T02:17:45.136Z,75.29
2018-02-24T02:18:51.325Z,75.30
2018-02-24T02:19:57.160Z,75.64
2018-02-24T02:21:03.368Z,75.87
2018-02-24T02:22:09.529Z,75.87
2018-02-24T02:23:15.479Z,75.54
2018-02-24T02:24:21.696Z,75.42
2018-02-24T02:25:27.926Z,75.55
2018-02-24T02:26:34.163Z,75.79
2018-02-24T02:27:40.374Z,75.63
2018-02-24T02:28:46.499Z,75.76
2018-02-24T02:29:52.683Z,75.64
2018-02-24T02:30:58.954Z,75.71
2018-02-24T02:32:05.135Z,75.87
2018-02-24T02:33:11.283Z,75.74
2018-02-24T02:34:17.431Z,75.42
2018-02-24T02:35:23.378Z,75.58
2018-02-24T02:36:29.576Z,75.69
2018-02-24T02:37:35.530Z,76.04
2018-02-24T02:38:41.751Z,76.27
2018-02-24T02:39:47.711Z,75.93
2018-02-24T02:40:53.624Z,75.94
2018-02-24T02:41:59.788Z,76.10
2018-02-24T02:43:05.958Z,75.72
2018-02-24T02:44:12.176Z,75.43
2018-02-24T02:45:18.303Z,75.44
2018-02-24T02:46:25.463Z,75.51
2018-02-24T02:47:31.701Z,75.29
2018-02-24T02:48:37.957Z,75.04
2018-02-24T02:49:43.864Z,74.88
2018-02-24T02:50:55.056Z,74.96
2018-02-24T02:52:01.310Z,75.19
2018-02-24T02:53:07.505Z,75.50
2018-02-24T02:54:13.333Z,75.88
2018-02-24T02:55:19.501Z,76.10
2018-02-24T02:56:25.376Z,76.22
2018-02-24T02:57:31.600Z,76.20
2018-02-24T02:58:37.747Z,76.17
2018-02-24T02:59:43.988Z,76.19
2018-02-24T03:00:50.203Z,76.00
2018-02-24T03:01:56.438Z,76.09
2018-02-24T03:03:02.611Z,76.00
2018-02-24T03:04:08.870Z,75.80
2018-02-24T03:05:15.519Z,75.73
2018-02-24T03:06:21.508Z,75.76
2018-02-24T03:07:27.445Z,76.02
2018-02-24T03:08:33.380Z,75.99
2018-02-24T03:09:39.539Z,75.67
2018-02-24T03:10:45.703Z,75.72
2018-02-24T03:11:51.584Z,75.87
2018-02-24T03:12:57.784Z,75.60
2018-02-24T03:14:04.051Z,76.21
2018-02-24T03:15:10.348Z,76.32
2018-02-24T03:16:16.275Z,76.46
2018-02-24T03:17:22.253Z,76.40
2018-02-24T03:18:28.560Z,76.93
2018-02-24T03:19:34.807Z,77.04
2018-02-24T03:20:41.426Z,76.83
2018-02-24T03:21:47.603Z,76.56
2018-02-24T03:22:57.666Z,76.57
2018-02-24T03:24:03.945Z,76.55
2018-02-24T03:25:10.149Z,76.27
2018-02-24T03:26:16.377Z,76.03
2018-02-24T03:27:27.332Z,76.19
2018-02-24T03:28:33.514Z,75.92
2018-02-24T03:29:39.758Z,75.90
2018-02-24T03:30:45.950Z,76.00
2018-02-24T03:31:51.874Z,76.43
2018-02-24T03:32:58.072Z,76.72
2018-02-24T03:34:03.922Z,76.68
2018-02-24T03:35:10.372Z,76.44
2018-02-24T03:36:16.575Z,76.19
2018-02-24T03:37:22.547Z,75.99
2018-02-24T03:38:29.635Z,76.02
2018-02-24T03:39:35.837Z,75.92
2018-02-24T03:40:42.076Z,76.34
2018-02-24T03:41:48.052Z,76.48
2018-02-24T03:42:53.824Z,76.51
2018-02-24T03:43:59.736Z,76.31
2018-02-24T03:45:05.753Z,76.39
2018-02-24T03:47:44.001Z,76.21
2018-02-24T03:48:50.192Z,76.17
2018-02-24T03:49:56.211Z,76.24
2018-02-24T03:51:02.357Z,76.09
2018-02-24T03:52:08.198Z,76.34
2018-02-24T03:53:14.141Z,76.70
2018-02-24T03:54:20.306Z,76.72
2018-02-24T03:55:26.301Z,76.91
2018-02-24T03:56:32.231Z,76.71
2018-02-24T03:57:38.281Z,76.67
2018-02-24T03:58:45.254Z,76.79
2018-02-24T03:59:52.285Z,76.76
2018-02-24T04:00:58.535Z,76.58
2018-02-24T04:02:04.430Z,76.57
2018-02-24T04:03:10.640Z,76.81
2018-02-24T04:04:21.576Z,76.67
2018-02-24T04:05:27.928Z,76.71
2018-02-24T04:06:34.091Z,76.91
2018-02-24T04:07:40.300Z,77.15
2018-02-24T04:08:47.720Z,77.30
2018-02-24T04:09:53.997Z,77.20
2018-02-24T04:11:00.173Z,77.09
2018-02-24T04:12:05.844Z,76.93
2018-02-24T04:13:11.700Z,76.76
2018-02-24T04:14:17.572Z,76.82
2018-02-24T04:15:23.773Z,76.68
2018-02-24T04:16:30.016Z,76.69
2018-02-24T04:17:36.457Z,76.61
2018-02-24T04:18:42.613Z,77.01
2018-02-24T04:19:48.910Z,77.19
2018-02-24T04:20:55.061Z,77.38
2018-02-24T04:22:01.217Z,77.26
2018-02-24T04:23:07.392Z,77.23
2018-02-24T04:24:13.321Z,77.18
2018-02-24T04:25:19.570Z,77.19
2018-02-24T04:26:25.760Z,77.17
2018-02-24T04:27:31.943Z,77.24
2018-02-24T04:28:38.128Z,77.44
2018-02-24T04:29:44.036Z,77.38
2018-02-24T04:30:50.235Z,77.84
2018-02-24T04:31:56.433Z,77.90
2018-02-24T04:33:02.593Z,77.78
2018-02-24T04:34:14.214Z,77.63
2018-02-24T04:35:20.458Z,77.67
2018-02-24T04:36:26.696Z,77.63
2018-02-24T04:37:32.972Z,77.64
2018-02-24T04:38:39.127Z,77.71
2018-02-24T04:39:45.345Z,77.77
2018-02-24T04:40:51.574Z,77.75
2018-02-24T04:41:57.742Z,77.72
2018-02-24T04:43:03.936Z,77.81
2018-02-24T04:44:09.844Z,77.68
2018-02-24T04:45:16.009Z,77.64
2018-02-24T04:46:22.145Z,77.67
2018-02-24T04:47:28.356Z,77.51
2018-02-24T04:48:34.588Z,77.50
2018-02-24T04:49:40.779Z,77.72
2018-02-24T04:50:46.930Z,77.70
2018-02-24T04:51:53.072Z,77.70
2018-02-24T04:52:59.255Z,77.74
2018-02-24T04:54:05.442Z,77.80
2018-02-24T04:55:11.632Z,77.70
2018-02-24T04:56:17.803Z,77.18
2018-02-24T04:57:24.038Z,77.24
2018-02-24T04:58:30.285Z,76.86
2018-02-24T04:59:41.472Z,76.86
2018-02-24T05:00:47.659Z,76.71
2018-02-24T05:01:53.896Z,76.58
2018-02-24T05:03:00.066Z,76.46
2018-02-24T05:04:06.285Z,76.55
2018-02-24T05:05:12.454Z,76.91
2018-02-24T05:06:18.614Z,77.27
2018-02-24T05:07:24.481Z,77.42
2018-02-24T05:08:31.077Z,78.06
2018-02-24T05:09:36.669Z,78.06
2018-02-24T05:10:42.911Z,78.10
2018-02-24T05:11:49.097Z,78.09
2018-02-24T05:12:55.275Z,77.97
2018-02-24T05:14:01.431Z,77.84
2018-02-24T05:15:07.617Z,77.63
2018-02-24T05:16:13.804Z,77.50
2018-02-24T05:17:19.969Z,77.54
2018-02-24T05:18:26.183Z,77.02
2018-02-24T05:19:32.551Z,77.44
2018-02-24T05:20:38.819Z,77.88
2018-02-24T05:21:44.796Z,77.73
2018-02-24T05:22:50.940Z,77.62
2018-02-24T05:23:57.095Z,77.64
2018-02-24T05:25:03.248Z,77.43
2018-02-24T05:26:09.537Z,77.97
2018-02-24T05:27:15.762Z,78.41
2018-02-24T05:28:21.980Z,78.63
2018-02-24T05:29:28.129Z,78.79
2018-02-24T05:30:34.364Z,78.87
2018-02-24T05:31:41.272Z,79.47
2018-02-24T05:32:47.652Z,79.38
2018-02-24T05:33:53.863Z,79.08
2018-02-24T05:35:00.058Z,78.92
2018-02-24T05:36:06.332Z,78.89
2018-02-24T05:37:12.520Z,78.87
2018-02-24T05:38:18.456Z,78.84
2018-02-24T05:39:31.591Z,79.00
2018-02-24T05:40:39.402Z,79.21
2018-02-24T05:41:46.688Z,79.45
2018-02-24T05:42:54.831Z,79.65
2018-02-24T05:44:02.452Z,79.33
2018-02-24T05:45:09.543Z,79.07
2018-02-24T05:46:16.560Z,79.02
2018-02-24T05:47:23.102Z,79.04
2018-02-24T05:48:30.458Z,78.81
2018-02-24T05:49:37.666Z,78.72
2018-02-24T05:50:46.424Z,78.90
2018-02-24T05:51:55.318Z,78.74
2018-02-24T05:53:03.128Z,78.74
2018-02-24T05:54:10.707Z,78.76
2018-02-24T05:55:18.111Z,78.97
2018-02-24T05:56:25.603Z,79.30
2018-02-24T05:57:33.638Z,79.47
2018-02-24T05:58:40.924Z,79.56
2018-02-24T05:59:49.026Z,79.40
2018-02-24T06:00:56.913Z,79.50
2018-02-24T06:02:05.309Z,79.85
2018-02-24T06:03:13.368Z,79.76
2018-02-24T06:04:20.726Z,79.57
2018-02-24T06:05:29.486Z,79.49
2018-02-24T06:06:38.187Z,79.58
2018-02-24T06:07:45.499Z,79.38
2018-02-24T06:08:53.771Z,79.43
2018-02-24T06:10:01.772Z,79.47
2018-02-24T06:11:09.794Z,79.40
2018-02-24T06:12:16.996Z,79.04
2018-02-24T06:13:23.295Z,79.21
2018-02-24T06:14:29.203Z,79.34
2018-02-24T06:15:36.100Z,79.56
2018-02-24T06:16:41.945Z,79.39
2018-02-24T06:17:48.084Z,79.11
2018-02-24T06:18:54.270Z,79.17
2018-02-24T06:20:00.205Z,79.14
2018-02-24T06:21:06.734Z,79.37
2018-02-24T06:22:12.868Z,79.68
2018-02-24T06:23:18.994Z,79.72
2018-02-24T06:24:25.168Z,79.73
2018-02-24T06:25:31.138Z,79.48
2018-02-24T06:26:36.800Z,79.56
2018-02-24T06:27:42.649Z,79.64
2018-02-24T06:28:48.833Z,79.55
2018-02-24T06:29:54.910Z,79.64
2018-02-24T06:31:00.853Z,79.58
2018-02-24T06:32:07.067Z,79.42
2018-02-24T06:33:13.099Z,79.02
2018-02-24T06:34:19.258Z,78.48
2018-02-24T06:35:25.393Z,78.67
2018-02-24T06:36:31.568Z,78.58
2018-02-24T06:37:43.433Z,78.27
2018-02-24T06:38:49.399Z,78.05
2018-02-24T06:39:56.390Z,77.87
2018-02-24T06:41:02.274Z,77.75
2018-02-24T06:42:12.455Z,77.88
2018-02-24T06:43:18.704Z,78.08
2018-02-24T06:44:24.825Z,77.84
2018-02-24T06:45:39.608Z,77.87
2018-02-24T06:46:45.533Z,77.97
2018-02-24T06:47:51.847Z,78.05
2018-02-24T06:48:58.332Z,78.13
2018-02-24T06:50:04.571Z,78.32
2018-02-24T06:51:10.869Z,78.17
2018-02-24T06:52:17.165Z,78.04
2018-02-24T06:53:23.402Z,77.92
2018-02-24T06:54:30.185Z,77.82
2018-02-24T06:55:36.770Z,77.21
2018-02-24T06:56:43.541Z,77.41
2018-02-24T06:57:51.143Z,77.43
2018-02-24T06:58:59.088Z,77.36
2018-02-24T07:00:04.859Z,77.11
2018-02-24T07:01:11.066Z,77.28
2018-02-24T07:02:16.931Z,77.29
2018-02-24T07:03:23.152Z,77.17
2018-02-24T07:04:29.451Z,77.14
2018-02-24T07:05:35.636Z,77.43
2018-02-24T07:06:42.355Z,77.69
2018-02-24T07:07:48.637Z,77.50
2018-02-24T07:08:55.071Z,77.44
2018-02-24T07:10:01.486Z,77.16
2018-02-24T07:11:07.703Z,76.91
2018-02-24T07:12:14.057Z,76.96
2018-02-24T07:13:20.304Z,77.29
2018-02-24T07:14:26.588Z,77.49
2018-02-24T07:15:32.932Z,77.85
2018-02-24T07:16:39.325Z,77.44
2018-02-24T07:17:45.587Z,77.29
2018-02-24T07:18:51.770Z,77.39
2018-02-24T07:19:58.179Z,77.15
2018-02-24T07:21:04.213Z,76.92
2018-02-24T07:22:10.648Z,76.80
2018-02-24T07:23:16.699Z,76.54
2018-02-24T07:24:22.957Z,76.58
2018-02-24T07:25:29.268Z,76.63
2018-02-24T07:26:35.615Z,76.66
2018-02-24T07:27:41.970Z,76.61
2018-02-24T07:28:48.275Z,77.00
2018-02-24T07:29:55.734Z,77.08
2018-02-24T07:31:01.985Z,77.41
2018-02-24T07:32:08.580Z,77.37
2018-02-24T07:33:14.776Z,77.59
2018-02-24T07:34:21.112Z,77.37
2018-02-24T07:35:27.355Z,77.47
2018-02-24T07:36:33.691Z,77.45
2018-02-24T07:37:39.962Z,77.92
2018-02-24T07:38:46.391Z,78.05
2018-02-24T07:39:52.482Z,77.76
2018-02-24T07:40:58.766Z,77.79
2018-02-24T07:42:05.185Z,78.05
2018-02-24T07:43:11.472Z,78.31
2018-02-24T07:44:17.783Z,78.00
2018-02-24T07:45:27.990Z,77.87
2018-02-24T07:46:34.288Z,77.82
2018-02-24T07:47:40.911Z,77.92
2018-02-24T07:48:47.320Z,77.74
2018-02-24T07:49:53.569Z,77.49
2018-02-24T07:50:59.775Z,77.65
2018-02-24T07:52:05.981Z,77.96
2018-02-24T07:53:12.311Z,77.85
2018-02-24T07:54:18.581Z,77.95
2018-02-24T07:55:24.868Z,78.34
2018-02-24T07:56:31.371Z,78.18
2018-02-24T07:57:37.661Z,78.18
2018-02-24T07:58:44.235Z,78.45
2018-02-24T07:59:50.718Z,78.45
2018-02-24T08:00:56.941Z,78.44
2018-02-24T08:02:03.163Z,78.53
2018-02-24T08:03:09.277Z,78.66
2018-02-24T08:04:15.527Z,78.63
2018-02-24T08:05:21.450Z,78.77
2018-02-24T08:06:27.651Z,78.94
2018-02-24T08:07:33.576Z,79.18
2018-02-24T08:08:39.719Z,79.22
2018-02-24T08:09:45.986Z,79.55
2018-02-24T08:10:52.188Z,79.53
2018-02-24T08:11:58.558Z,79.19
2018-02-24T08:13:04.774Z,79.40
2018-02-24T08:14:10.913Z,78.99
2018-02-24T08:15:17.139Z,79.17
2018-02-24T08:16:23.376Z,79.44
2018-02-24T08:17:29.506Z,79.85
2018-02-24T08:18:35.660Z,79.98
2018-02-24T08:19:41.876Z,80.15
2018-02-24T08:20:48.110Z,79.19
2018-02-24T08:21:54.147Z,79.08
2018-02-24T08:23:00.384Z,79.31
2018-02-24T08:24:06.509Z,79.27
2018-02-24T08:25:12.640Z,79.33
2018-02-24T08:26:18.536Z,79.69
2018-02-24T08:27:24.732Z,80.17
2018-02-24T08:28:31.197Z,80.66
2018-02-24T08:29:37.355Z,80.77
2018-02-24T08:30:43.638Z,80.76
2018-02-24T08:31:49.896Z,81.02
2018-02-24T08:32:56.046Z,81.16
2018-02-24T08:34:02.216Z,80.98
2018-02-24T08:35:08.428Z,81.33
2018-02-24T08:36:14.600Z,81.50
2018-02-24T08:37:20.793Z,81.39
2018-02-24T08:38:27.078Z,81.65
2018-02-24T08:39:34.546Z,81.67
2018-02-24T08:40:41.816Z,81.30
2018-02-24T08:41:52.954Z,80.87
2018-02-24T08:42:59.994Z,80.61
2018-02-24T08:44:06.866Z,80.55
2018-02-24T08:45:14.046Z,80.63
2018-02-24T08:46:21.475Z,80.60
2018-02-24T08:47:32.547Z,80.74
2018-02-24T08:48:40.714Z,80.53
2018-02-24T08:49:48.166Z,80.10
2018-02-24T08:50:55.736Z,80.44
2018-02-24T08:52:02.365Z,80.42
2018-02-24T08:53:09.412Z,80.31
2018-02-24T08:54:16.339Z,80.42
2018-02-24T08:55:23.825Z,80.17
2018-02-24T08:56:30.851Z,80.73
2018-02-24T08:57:37.898Z,80.66
2018-02-24T08:58:44.814Z,80.40
2018-02-24T08:59:52.431Z,80.54
2018-02-24T09:00:59.680Z,80.27
2018-02-24T09:02:06.684Z,79.83
2018-02-24T09:03:13.633Z,80.06
2018-02-24T09:04:21.020Z,80.42
2018-02-24T09:05:28.327Z,80.12
2018-02-24T09:06:35.107Z,80.14
2018-02-24T09:07:43.330Z,80.84
2018-02-24T09:08:50.963Z,80.60
2018-02-24T09:09:58.798Z,80.50
2018-02-24T09:11:05.951Z,79.82
2018-02-24T09:12:13.445Z,79.57
2018-02-24T09:13:20.308Z,78.84
2018-02-24T09:14:27.547Z,78.97
2018-02-24T09:15:34.698Z,78.36
2018-02-24T09:16:41.792Z,78.24
2018-02-24T09:17:49.603Z,77.94
2018-02-24T09:18:56.627Z,77.61
2018-02-24T09:20:05.106Z,77.01
2018-02-24T09:21:12.359Z,76.61
2018-02-24T09:22:20.122Z,76.29
2018-02-24T09:23:27.234Z,76.19
2018-02-24T09:24:34.396Z,76.11
2018-02-24T09:25:41.683Z,75.86
2018-02-24T09:26:48.715Z,75.88
2018-02-24T09:27:55.914Z,75.66
2018-02-24T09:29:02.978Z,74.88
2018-02-24T09:30:09.877Z,73.58
2018-02-24T09:31:16.915Z,72.02
2018-02-24T09:32:24.288Z,70.92
2018-02-24T09:33:30.942Z,70.17
2018-02-24T09:34:37.704Z,69.60
2018-02-24T09:35:43.973Z,69.87
2018-02-24T09:36:50.148Z,69.69
2018-02-24T09:37:56.411Z,69.71
2018-02-24T09:39:02.603Z,69.21
2018-02-24T09:40:08.586Z,68.22
2018-02-24T09:41:14.941Z,67.56
2018-02-24T09:42:21.148Z,68.13
2018-02-24T09:43:27.401Z,67.63
2018-02-24T09:44:33.614Z,66.79
2018-02-24T09:45:39.850Z,66.63
2018-02-24T09:46:45.784Z,66.72
2018-02-24T09:47:51.987Z,66.74
2018-02-24T09:48:58.174Z,66.55
2018-02-24T09:50:04.426Z,66.63
2018-02-24T09:51:10.676Z,66.97
2018-02-24T09:52:18.650Z,67.19
2018-02-24T09:53:24.886Z,66.42
2018-02-24T09:54:31.154Z,66.97
2018-02-24T09:55:37.514Z,66.77
2018-02-24T09:56:43.776Z,66.06
2018-02-24T09:57:51.002Z,65.48
2018-02-24T09:58:58.702Z,64.26
2018-02-24T10:00:04.248Z,64.33
2018-02-24T10:01:10.482Z,64.13
2018-02-24T10:02:16.767Z,64.46
2018-02-24T10:03:22.790Z,64.34
2018-02-24T10:04:29.040Z,63.89
2018-02-24T10:05:36.292Z,64.00
2018-02-24T10:06:42.662Z,63.82
2018-02-24T10:07:48.715Z,63.88
2018-02-24T10:08:54.990Z,63.34
2018-02-24T10:10:01.264Z,62.39
2018-02-24T10:11:07.445Z,62.33
2018-02-24T10:12:13.671Z,60.16
2018-02-24T10:13:19.884Z,59.38
2018-02-24T10:14:26.160Z,58.92
2018-02-24T10:15:32.835Z,58.69
2018-02-24T10:16:41.133Z,58.65
2018-02-24T10:17:47.340Z,58.80
2018-02-24T10:18:53.641Z,58.79
2018-02-24T10:20:00.022Z,57.60
2018-02-24T10:21:06.277Z,58.20
2018-02-24T10:22:12.599Z,58.70
2018-02-24T10:23:18.510Z,58.78
2018-02-24T10:24:24.681Z,59.35
2018-02-24T10:25:30.929Z,59.27
2018-02-24T10:26:37.146Z,58.86
2018-02-24T10:27:44.144Z,58.86
2018-02-24T10:28:50.373Z,58.58
2018-02-24T10:29:56.676Z,59.08
2018-02-24T10:31:02.902Z,59.06
2018-02-24T10:32:09.144Z,58.20
2018-02-24T10:33:15.304Z,58.43
2018-02-24T10:34:21.429Z,58.30
2018-02-24T10:35:29.030Z,56.79
2018-02-24T10:36:36.222Z,56.15
2018-02-24T10:37:45.027Z,55.40
2018-02-24T10:38:51.379Z,55.69
2018-02-24T10:39:58.237Z,55.71
2018-02-24T10:41:06.465Z,55.58
2018-02-24T10:42:12.705Z,55.00
2018-02-24T10:43:18.967Z,55.10
2018-02-24T10:44:25.259Z,55.63
2018-02-24T10:45:31.453Z,55.77
2018-02-24T10:46:38.431Z,55.83
2018-02-24T10:47:44.718Z,55.65
2018-02-24T10:50:29.831Z,55.09
2018-02-24T10:51:35.930Z,55.44
2018-02-24T10:52:42.125Z,54.00
2018-02-24T10:53:48.374Z,53.92
2018-02-24T10:54:54.564Z,54.34
2018-02-24T10:56:00.702Z,53.69
2018-02-24T10:57:06.921Z,53.39
2018-02-24T10:58:13.173Z,53.05
2018-02-24T10:59:19.365Z,53.81
2018-02-24T11:00:25.629Z,54.01
2018-02-24T11:01:31.875Z,53.59
2018-02-24T11:02:38.089Z,53.36
2018-02-24T11:03:44.328Z,53.36
2018-02-24T11:04:50.533Z,53.46
2018-02-24T11:05:56.749Z,52.17
2018-02-24T11:07:03.156Z,52.53
2018-02-24T11:08:09.437Z,52.48
2018-02-24T11:09:15.675Z,51.37
2018-02-24T11:10:22.048Z,51.33
2018-02-24T11:11:28.464Z,50.56
2018-02-24T11:12:34.617Z,50.89
2018-02-24T11:13:40.819Z,51.06
2018-02-24T11:14:47.005Z,51.15
2018-02-24T11:15:53.233Z,51.38
2018-02-24T11:16:59.392Z,51.45
2018-02-24T11:18:05.661Z,51.68
2018-02-24T11:19:11.876Z,50.65
2018-02-24T11:20:18.121Z,49.10
2018-02-24T11:21:24.312Z,49.00
2018-02-24T11:22:30.526Z,48.66
2018-02-24T11:23:36.962Z,48.84
2018-02-24T11:24:43.188Z,48.66
2018-02-24T11:25:49.513Z,48.36
2018-02-24T11:26:55.741Z,48.05
2018-02-24T11:28:01.677Z,47.03
2018-02-24T11:29:07.864Z,46.47
2018-02-24T11:30:14.083Z,47.26
2018-02-24T11:31:20.298Z,47.90
2018-02-24T11:32:26.683Z,44.58
2018-02-24T11:33:32.841Z,43.37
2018-02-24T11:34:39.010Z,43.36
2018-02-24T11:35:45.585Z,43.07
2018-02-24T11:36:51.788Z,42.55
2018-02-24T11:37:58.012Z,42.05
2018-02-24T11:39:03.557Z,42.35
2018-02-24T11:40:09.915Z,42.74
2018-02-24T11:41:16.188Z,43.35
2018-02-24T11:42:22.369Z,43.51
2018-02-24T11:43:28.349Z,43.79
2018-02-24T11:44:34.621Z,44.04
2018-02-24T11:45:41.242Z,43.99
2018-02-24T11:46:47.465Z,44.07
2018-02-24T11:47:53.712Z,44.66
2018-02-24T11:48:59.977Z,44.40
2018-02-24T11:50:06.242Z,44.47
2018-02-24T11:51:12.457Z,44.54
2018-02-24T11:52:18.677Z,43.87
2018-02-24T11:53:25.198Z,43.36
2018-02-24T11:54:31.397Z,43.66
2018-02-24T11:55:37.629Z,43.51
2018-02-24T11:56:44.560Z,43.87
2018-02-24T11:57:50.844Z,44.36
2018-02-24T11:58:57.014Z,44.13
2018-02-24T12:00:03.161Z,44.70
2018-02-24T12:01:09.091Z,44.38
2018-02-24T12:02:15.296Z,44.77
2018-02-24T12:03:21.489Z,45.10
2018-02-24T12:04:27.728Z,44.74
2018-02-24T12:05:33.593Z,44.57
2018-02-24T12:06:39.798Z,44.46
2018-02-24T12:07:45.959Z,45.13
2018-02-24T12:08:52.166Z,45.69
2018-02-24T12:09:58.234Z,45.87
2018-02-24T12:11:04.598Z,46.01
2018-02-24T12:12:10.655Z,46.40
2018-02-24T12:13:17.223Z,46.35
2018-02-24T12:14:23.466Z,46.28
2018-02-24T12:15:29.701Z,46.37
2018-02-24T12:16:35.903Z,46.29
2018-02-24T12:17:42.213Z,46.50
2018-02-24T12:18:49.289Z,46.11
2018-02-24T12:19:56.844Z,46.71
2018-02-24T12:21:03.575Z,45.33
2018-02-24T12:22:10.329Z,44.68
2018-02-24T12:23:17.579Z,44.72
2018-02-24T12:24:26.936Z,44.96
2018-02-24T12:25:33.703Z,45.55
2018-02-24T12:26:40.429Z,44.76
2018-02-24T12:27:46.878Z,45.35
2018-02-24T12:28:53.286Z,45.68
2018-02-24T12:29:59.907Z,45.62
2018-02-24T12:31:06.838Z,46.29
2018-02-24T12:32:13.407Z,46.56
2018-02-24T12:33:19.866Z,47.10
2018-02-24T12:34:26.534Z,47.59
2018-02-24T12:35:33.027Z,47.60
2018-02-24T12:36:39.960Z,47.40
2018-02-24T12:37:46.885Z,47.17
2018-02-24T12:38:53.492Z,47.69
2018-02-24T12:40:01.642Z,48.42
2018-02-24T12:41:09.557Z,47.89
2018-02-24T12:42:17.319Z,47.91
2018-02-24T12:43:24.710Z,47.95
2018-02-24T12:44:31.703Z,46.88
2018-02-24T12:45:38.156Z,47.05
2018-02-24T12:46:44.820Z,46.52
2018-02-24T12:47:51.245Z,46.11
2018-02-24T12:48:58.088Z,46.08
2018-02-24T12:50:04.524Z,45.19
2018-02-24T12:51:12.165Z,45.55
2018-02-24T12:52:18.588Z,45.75
2018-02-24T12:53:26.120Z,45.17
2018-02-24T12:54:32.910Z,45.54
2018-02-24T12:55:39.813Z,45.27
2018-02-24T12:56:46.597Z,45.36
2018-02-24T12:57:53.016Z,45.42
2018-02-24T12:58:59.882Z,44.02
2018-02-24T13:00:07.288Z,44.07
2018-02-24T13:01:15.748Z,44.40
2018-02-24T13:02:22.303Z,44.28
2018-02-24T13:03:29.648Z,44.14
2018-02-24T13:04:37.292Z,44.09
2018-02-24T13:05:43.803Z,44.26
2018-02-24T13:06:49.950Z,44.04
2018-02-24T13:07:56.386Z,43.76
2018-02-24T13:12:41.182Z,43.68
2018-02-24T13:13:49.151Z,43.10
2018-02-24T13:14:57.030Z,43.74
2018-02-24T13:16:04.549Z,44.09
2018-02-24T13:17:11.921Z,43.51
2018-02-24T13:18:19.843Z,43.51
2018-02-24T13:19:26.312Z,43.98
2018-02-24T13:20:32.731Z,44.17
2018-02-24T13:21:39.336Z,44.47
2018-02-24T13:22:45.690Z,44.26
2018-02-24T13:23:52.043Z,44.55
2018-02-24T13:24:58.870Z,44.97
2018-02-24T13:26:05.495Z,44.89
2018-02-24T13:27:12.000Z,44.74
2018-02-24T13:28:18.367Z,44.77
2018-02-24T13:29:24.626Z,45.07
2018-02-24T13:30:31.324Z,45.23
2018-02-24T13:31:38.125Z,45.26
2018-02-24T13:32:44.824Z,44.93
2018-02-24T13:33:51.405Z,44.27
2018-02-24T13:34:57.466Z,43.13
2018-02-24T13:36:03.680Z,42.27
2018-02-24T13:37:09.448Z,42.64
2018-02-24T13:38:15.488Z,42.71
2018-02-24T13:39:21.521Z,42.40
2018-02-24T13:40:27.557Z,41.99
2018-02-24T13:41:33.752Z,41.19
2018-02-24T13:42:40.000Z,40.58
2018-02-24T13:43:45.723Z,40.54
2018-02-24T13:44:51.711Z,41.33
2018-02-24T13:45:57.918Z,42.25
2018-02-24T13:47:09.196Z,41.85
2018-02-24T13:48:15.441Z,41.61
2018-02-24T13:49:21.829Z,41.75
2018-02-24T13:50:28.080Z,41.74
2018-02-24T13:51:34.339Z,42.08
2018-02-24T13:52:40.490Z,42.28
2018-02-24T13:53:46.738Z,41.89
2018-02-24T13:54:52.971Z,42.15
2018-02-24T13:55:59.188Z,42.48
2018-02-24T13:57:05.358Z,41.74
2018-02-24T13:58:11.525Z,41.21
2018-02-24T13:59:17.774Z,40.92
2018-02-24T14:00:24.026Z,40.95
2018-02-24T14:01:30.603Z,41.14
2018-02-24T14:02:36.869Z,40.96
2018-02-24T14:03:43.108Z,40.72
2018-02-24T14:04:49.313Z,40.74
2018-02-24T14:05:55.523Z,40.80
2018-02-24T14:07:02.066Z,40.87
2018-02-24T14:08:08.255Z,40.92
2018-02-24T14:09:14.397Z,40.64
2018-02-24T14:10:20.627Z,40.42
2018-02-24T14:11:27.033Z,40.57
2018-02-24T14:12:33.230Z,40.50
2018-02-24T14:13:42.241Z,40.44
2018-02-24T14:14:48.407Z,40.87
2018-02-24T14:15:54.575Z,40.84
2018-02-24T14:17:00.812Z,40.20
2018-02-24T14:18:06.991Z,40.19
2018-02-24T14:19:13.182Z,39.75
2018-02-24T14:20:19.412Z,40.19
2018-02-24T14:21:25.633Z,40.24
2018-02-24T14:22:31.645Z,40.79
2018-02-24T14:23:38.059Z,41.02